Airfield :
LOGIN :

Register | Disclaimer

   EN    FR    IT 

 










Legend :    VFR   Marginal VFR   IFR   Intensive IFR   Very Intensive IFR
Visi :
Ceiling :
>= 8 km
>= 3000ft
5 to 8 km
1000 to 3000 ft
1500m to 5 km
500 to 1000 ft
800 to 1500m
200 to 500 ft
< 800m
< 200 ft
Symbols :   Thunderstorms  Fog  Heavy snow  Heavy precipitations  Wind > 20 kt
SIGMETs :     Misc.  Thunderstorms  Icing  Turbulence  Mountain Waves  Volcanic Ashes







- Airport Elevation : 392 ft
- IATA code : CDG
- Download approach charts


LFPG - Paris-Aeroport Charles De Gaulle

CURRENT METAR :
  • 161630Z 30006KT CAVOK 26/14 Q1019 NOSIG

EXPIRED METARs :
  • 161600Z 30008KT 270V350 CAVOK 26/13 Q1019 NOSIG
  • 161530Z 31009KT 250V330 CAVOK 27/14 Q1020 NOSIG
  • 161500Z 28006KT 240V320 CAVOK 27/13 Q1020 NOSIG
  • 161430Z 26007KT 200V290 CAVOK 27/12 Q1020 NOSIG
  • 161400Z 25007KT 210V290 CAVOK 27/12 Q1020 NOSIG

TAF TAF LFPG
Valid from the 16 at 12:00 until the 17 at 18:00 UTC


161100Z 1612/1718 28005KT CAVOK TX27/1614Z TN15/1705Z
BECMG 1622/1624 01010KT BKN014
TEMPO 1623/1701 BKN005
BECMG 1708/1710 CAVOK
ATIS : +33 1 48 62 10 92
No reported NOTAMs for that airfield.



MET'MAP, your aeronautical weather chart ! - Copyright ORBIFLY December 2007 - Disclaimer

ORBIFLY MET'MAP TEAM :

Programming & Development : Alexandra Zaïnal
Concept & Development : Baudouin d'Aumeries
Co-Development & Prog : Marc-Olivier Méhu
Technical & hardware support : Manuel Goepfert

Contact : metmap@orbifly.com




SOURCES & CREDITS :

   NOAA